Time;durP1;ratioP1;P1;durP2;ratioP2;P2;SDS_P1;SDS_P2;PMS_P1;PMS_P2;Temp;Humidity;BMP_temperature;BMP_pressure;BME280_temperature;BME280_humidity;BME280_pressure;Samples;Min_cycle;Max_cycle;Signal;HPM_P1;HPM_P2
2023/12/31 00:01:00;;;;;;;181.73;54.67;;;;;;;;;;4977879;28;20417;-45
2023/12/31 00:03:26;;;;;;;207.57;57.77;;;;;;;;;;4980100;28;20177;-45
2023/12/31 00:05:52;;;;;;;206.20;57.37;;;;;;;;;;4980703;28;20432;-45
2023/12/31 00:08:18;;;;;;;208.48;58.85;;;;;;;;;;4983765;28;20911;-45
2023/12/31 00:10:44;;;;;;;204.13;58.40;;;;;;;;;;4981150;28;20182;-45
2023/12/31 00:13:10;;;;;;;156.90;47.70;;;;;;;;;;4984020;28;20208;-45
2023/12/31 00:15:36;;;;;;;43.30;38.80;;;;;;;;;;4980215;28;20451;-45
2023/12/31 00:18:02;;;;;;;14.53;13.30;;;;;;;;;;4976259;28;20413;-45
2023/12/31 00:20:28;;;;;;;45.23;40.33;;;;;;;;;;4984864;28;20436;-44
2023/12/31 00:22:54;;;;;;;17.67;16.07;;;;;;;;;;4984821;28;20467;-45
2023/12/31 00:25:20;;;;;;;27.48;25.38;;;;;;;;;;4987949;28;20453;-45
2023/12/31 00:27:46;;;;;;;30.00;27.90;;;;;;;;;;4980135;28;20177;-45
2023/12/31 00:30:12;;;;;;;82.10;36.37;;;;;;;;;;4986507;28;20411;-45
2023/12/31 00:32:38;;;;;;;93.53;38.35;;;;;;;;;;4982182;28;20403;-45
2023/12/31 00:35:05;;;;;;;91.20;43.90;;;;;;;;;;4986396;28;20683;-45
2023/12/31 00:37:31;;;;;;;83.38;38.67;;;;;;;;;;4986168;28;20431;-45
2023/12/31 00:39:57;;;;;;;69.90;35.30;;;;;;;;;;4983050;28;20173;-45
2023/12/31 00:42:23;;;;;;;65.57;35.08;;;;;;;;;;4985381;28;20404;-44
2023/12/31 00:44:49;;;;;;;66.88;35.65;;;;;;;;;;4984199;28;20526;-44
2023/12/31 00:47:15;;;;;;;68.67;41.60;;;;;;;;;;4984574;28;20208;-45
2023/12/31 00:49:41;;;;;;;72.00;35.47;;;;;;;;;;4979816;28;20504;-45
2023/12/31 00:52:07;;;;;;;58.73;39.40;;;;;;;;;;4975270;28;20835;-45
2023/12/31 00:54:33;;;;;;;49.45;34.10;;;;;;;;;;4980976;28;20654;-44
2023/12/31 00:56:59;;;;;;;51.77;34.77;;;;;;;;;;4981379;28;20301;-45
2023/12/31 00:59:26;;;;;;;58.25;34.65;;;;;;;;;;4983568;28;20797;-44
2023/12/31 01:01:54;;;;;;;11.95;10.85;;;;;;;;;;4983694;28;20206;-45
2023/12/31 01:04:20;;;;;;;10.85;10.00;;;;;;;;;;4976101;28;20252;-45
2023/12/31 01:06:46;;;;;;;184.13;51.47;;;;;;;;;;4977197;28;20231;-45
2023/12/31 01:09:13;;;;;;;10.13;9.23;;;;;;;;;;4977943;28;20424;-45
2023/12/31 01:11:39;;;;;;;11.43;10.52;;;;;;;;;;4986781;28;20499;-45
2023/12/31 01:14:05;;;;;;;10.70;9.80;;;;;;;;;;4974815;28;20308;-46
2023/12/31 01:16:31;;;;;;;12.70;11.60;;;;;;;;;;4983556;28;20443;-44
2023/12/31 01:18:57;;;;;;;10.10;9.40;;;;;;;;;;4975600;28;20908;-44
2023/12/31 01:21:23;;;;;;;11.33;10.43;;;;;;;;;;4975317;28;20408;-43
2023/12/31 01:23:48;;;;;;;13.10;12.10;;;;;;;;;;4975303;28;20921;-45
2023/12/31 01:26:14;;;;;;;11.67;10.73;;;;;;;;;;4975399;28;20451;-45
2023/12/31 01:28:40;;;;;;;12.27;11.27;;;;;;;;;;4975388;28;20409;-45
2023/12/31 01:31:06;;;;;;;12.70;11.60;;;;;;;;;;4974704;28;20417;-45
2023/12/31 01:33:35;;;;;;;11.40;10.50;;;;;;;;;;4975026;28;20467;-44
2023/12/31 01:36:01;;;;;;;11.73;10.90;;;;;;;;;;4975156;28;20428;-45
2023/12/31 01:38:27;;;;;;;137.57;41.63;;;;;;;;;;4975064;28;20180;-45
2023/12/31 01:40:53;;;;;;;209.50;62.77;;;;;;;;;;4974935;28;20412;-46
2023/12/31 01:43:19;;;;;;;213.52;60.58;;;;;;;;;;4974812;28;20412;-45
2023/12/31 01:45:45;;;;;;;216.70;60.67;;;;;;;;;;4974856;28;20189;-45
2023/12/31 01:48:11;;;;;;;214.93;59.53;;;;;;;;;;4975136;28;20667;-46
2023/12/31 01:50:37;;;;;;;217.80;63.47;;;;;;;;;;4974234;28;20409;-46
2023/12/31 01:53:04;;;;;;;215.55;61.83;;;;;;;;;;4980260;28;20190;-45
2023/12/31 01:55:30;;;;;;;214.73;60.13;;;;;;;;;;4986918;28;20664;-45
2023/12/31 01:57:56;;;;;;;126.25;42.42;;;;;;;;;;4986825;28;20184;-44
2023/12/31 02:00:22;;;;;;;187.90;58.03;;;;;;;;;;4980600;28;20548;-46
2023/12/31 02:02:49;;;;;;;158.70;48.77;;;;;;;;;;4985748;28;20421;-45
2023/12/31 02:05:16;;;;;;;216.15;63.08;;;;;;;;;;4984867;28;20511;-45
2023/12/31 02:07:42;;;;;;;218.20;64.10;;;;;;;;;;4984273;28;20634;-45
2023/12/31 02:10:09;;;;;;;217.80;65.07;;;;;;;;;;4983905;28;20185;-45
2023/12/31 02:12:36;;;;;;;219.30;67.03;;;;;;;;;;4984180;28;20551;-46
2023/12/31 02:15:02;;;;;;;216.07;63.57;;;;;;;;;;4984634;28;20291;-45
2023/12/31 02:17:28;;;;;;;215.70;62.60;;;;;;;;;;4980424;28;20443;-45
2023/12/31 02:19:54;;;;;;;214.00;61.57;;;;;;;;;;4985674;28;20411;-46
2023/12/31 02:22:21;;;;;;;217.60;65.50;;;;;;;;;;4983302;28;20408;-46
2023/12/31 02:24:48;;;;;;;217.15;64.55;;;;;;;;;;4982674;28;20420;-46
2023/12/31 02:27:14;;;;;;;215.80;64.90;;;;;;;;;;4984676;28;20276;-45
2023/12/31 02:29:40;;;;;;;216.40;63.50;;;;;;;;;;4982018;28;20724;-45
2023/12/31 02:32:06;;;;;;;218.67;66.67;;;;;;;;;;4982846;28;20252;-45
2023/12/31 02:34:32;;;;;;;219.63;64.85;;;;;;;;;;4982124;28;20564;-45
2023/12/31 02:36:58;;;;;;;216.30;63.00;;;;;;;;;;4987696;28;20277;-45
2023/12/31 02:39:25;;;;;;;216.07;63.72;;;;;;;;;;4982178;28;20787;-45
2023/12/31 02:41:51;;;;;;;214.65;60.75;;;;;;;;;;4980124;28;20201;-45
2023/12/31 02:44:18;;;;;;;219.00;66.93;;;;;;;;;;4981972;28;20204;-45
2023/12/31 02:46:45;;;;;;;217.70;63.65;;;;;;;;;;4984764;28;20755;-45
2023/12/31 02:49:11;;;;;;;218.10;63.85;;;;;;;;;;4984627;28;20192;-46
2023/12/31 02:51:38;;;;;;;214.35;61.55;;;;;;;;;;4976775;28;20260;-45
2023/12/31 02:54:04;;;;;;;217.40;63.95;;;;;;;;;;4970477;28;20209;-45
2023/12/31 02:56:30;;;;;;;215.90;62.00;;;;;;;;;;4973498;28;20197;-45
2023/12/31 02:58:56;;;;;;;214.13;61.07;;;;;;;;;;4981402;28;20901;-45
2023/12/31 03:01:22;;;;;;;219.20;65.67;;;;;;;;;;4984640;28;20408;-45
2023/12/31 03:03:48;;;;;;;216.13;63.20;;;;;;;;;;4983720;28;20408;-45
2023/12/31 03:06:15;;;;;;;214.47;61.50;;;;;;;;;;4983965;28;21498;-45
2023/12/31 03:08:41;;;;;;;217.07;63.30;;;;;;;;;;4982939;28;20424;-45
2023/12/31 03:11:11;;;;;;;213.97;62.20;;;;;;;;;;4983847;28;20565;-45
2023/12/31 03:13:37;;;;;;;215.82;64.93;;;;;;;;;;4980058;28;21001;-45
2023/12/31 03:16:04;;;;;;;210.17;60.37;;;;;;;;;;4983256;28;20212;-45
2023/12/31 03:18:30;;;;;;;214.45;61.90;;;;;;;;;;4984004;28;20412;-45
2023/12/31 03:20:56;;;;;;;216.37;62.53;;;;;;;;;;4980625;28;20260;-45
2023/12/31 03:23:23;;;;;;;215.97;62.70;;;;;;;;;;4983661;28;20470;-45
2023/12/31 03:25:49;;;;;;;213.07;60.25;;;;;;;;;;4980965;28;20436;-45
2023/12/31 03:28:15;;;;;;;195.73;56.53;;;;;;;;;;4982367;28;20207;-45
2023/12/31 03:30:41;;;;;;;205.73;62.20;;;;;;;;;;4980843;28;20417;-46
2023/12/31 03:33:08;;;;;;;216.27;63.38;;;;;;;;;;4987317;28;20428;-45
2023/12/31 03:35:34;;;;;;;216.07;63.00;;;;;;;;;;4982736;28;20689;-45
2023/12/31 03:38:00;;;;;;;217.60;64.40;;;;;;;;;;4979127;28;20213;-45
2023/12/31 03:40:27;;;;;;;220.30;68.60;;;;;;;;;;4981055;28;20405;-45
2023/12/31 03:42:53;;;;;;;217.82;66.35;;;;;;;;;;4980866;28;20173;-45
2023/12/31 03:45:20;;;;;;;214.20;61.95;;;;;;;;;;4984192;28;20196;-45
2023/12/31 03:47:46;;;;;;;216.35;63.53;;;;;;;;;;4981830;28;20260;-45
2023/12/31 03:50:12;;;;;;;218.50;67.03;;;;;;;;;;4985257;28;20215;-45
2023/12/31 03:52:38;;;;;;;217.38;65.57;;;;;;;;;;4985894;28;20510;-45
2023/12/31 03:55:06;;;;;;;219.45;68.03;;;;;;;;;;4989414;28;20192;-45
2023/12/31 03:57:32;;;;;;;119.75;39.42;;;;;;;;;;4972903;28;20189;-45
2023/12/31 03:59:58;;;;;;;216.57;66.07;;;;;;;;;;4990246;28;20240;-45
2023/12/31 04:02:23;;;;;;;216.57;66.70;;;;;;;;;;4978570;28;20776;-45
2023/12/31 04:04:52;;;;;;;219.07;69.27;;;;;;;;;;4981949;28;20776;-45
2023/12/31 04:07:19;;;;;;;215.48;65.43;;;;;;;;;;4986427;28;20441;-46
2023/12/31 04:09:46;;;;;;;224.80;73.03;;;;;;;;;;4970418;28;20186;-45
2023/12/31 04:12:12;;;;;;;214.30;63.80;;;;;;;;;;4982802;28;20261;-45
2023/12/31 04:14:39;;;;;;;215.80;64.55;;;;;;;;;;4980952;28;20201;-46
2023/12/31 04:17:05;;;;;;;214.95;64.38;;;;;;;;;;4981677;28;20217;-45
2023/12/31 04:19:31;;;;;;;214.80;65.27;;;;;;;;;;4980944;28;20531;-45
2023/12/31 04:21:57;;;;;;;211.48;63.00;;;;;;;;;;4989424;28;20796;-44
2023/12/31 04:24:36;;;;;;;14.97;13.90;;;;;;;;;;4980607;28;20177;-45
2023/12/31 04:27:02;;;;;;;18.77;17.23;;;;;;;;;;4982405;28;20984;-45
2023/12/31 04:29:28;;;;;;;14.10;13.10;;;;;;;;;;4980221;28;20185;-45
2023/12/31 04:31:54;;;;;;;15.03;13.93;;;;;;;;;;4984318;28;20426;-45
2023/12/31 04:34:19;;;;;;;182.63;56.63;;;;;;;;;;4977734;28;20466;-45
2023/12/31 04:36:46;;;;;;;201.37;61.13;;;;;;;;;;4977485;28;20436;-45
2023/12/31 04:39:12;;;;;;;214.15;65.13;;;;;;;;;;4989207;28;20964;-45
2023/12/31 04:41:38;;;;;;;212.02;63.33;;;;;;;;;;4983113;28;20169;-45
2023/12/31 04:44:04;;;;;;;211.63;63.67;;;;;;;;;;4981599;28;20261;-45
2023/12/31 04:46:30;;;;;;;211.02;65.22;;;;;;;;;;4986289;28;20436;-45
2023/12/31 04:48:56;;;;;;;211.77;64.70;;;;;;;;;;4983304;28;20220;-45
2023/12/31 04:51:28;;;;;;;210.37;62.90;;;;;;;;;;4970886;28;20204;-45
2023/12/31 04:53:55;;;;;;;215.35;67.07;;;;;;;;;;4972046;28;20798;-44
2023/12/31 04:56:21;;;;;;;213.52;67.20;;;;;;;;;;4972113;28;20716;-45
2023/12/31 04:58:49;;;;;;;211.68;66.68;;;;;;;;;;4976037;28;20177;-45
2023/12/31 05:01:16;;;;;;;208.30;64.63;;;;;;;;;;4982298;28;20659;-44
2023/12/31 05:03:41;;;;;;;212.13;70.10;;;;;;;;;;4980170;28;20636;-45
2023/12/31 05:06:07;;;;;;;207.17;64.80;;;;;;;;;;4976920;28;20295;-45
2023/12/31 05:08:33;;;;;;;210.07;69.00;;;;;;;;;;4975424;28;20417;-45
2023/12/31 05:10:59;;;;;;;208.00;66.27;;;;;;;;;;4988909;28;20420;-45
2023/12/31 05:13:25;;;;;;;208.67;67.17;;;;;;;;;;4983400;28;20466;-45
2023/12/31 05:15:51;;;;;;;209.75;71.70;;;;;;;;;;4981498;28;20948;-45
2023/12/31 05:18:17;;;;;;;205.43;65.97;;;;;;;;;;4984135;28;20169;-45
2023/12/31 05:20:43;;;;;;;203.20;66.32;;;;;;;;;;4983337;28;20401;-45
2023/12/31 05:23:09;;;;;;;202.57;66.63;;;;;;;;;;4985159;28;20252;-45
2023/12/31 05:25:35;;;;;;;201.40;66.37;;;;;;;;;;4986748;28;20495;-45
2023/12/31 05:28:01;;;;;;;199.67;68.13;;;;;;;;;;4987281;28;20412;-45
2023/12/31 05:30:27;;;;;;;203.53;69.57;;;;;;;;;;4974931;28;20409;-45
2023/12/31 05:32:53;;;;;;;200.60;65.67;;;;;;;;;;4975885;28;20408;-45
2023/12/31 05:35:19;;;;;;;197.20;65.43;;;;;;;;;;4986305;28;20503;-45
2023/12/31 05:37:45;;;;;;;198.37;65.80;;;;;;;;;;4985227;28;20208;-45
2023/12/31 05:40:11;;;;;;;197.33;65.10;;;;;;;;;;4985306;28;20416;-44
2023/12/31 05:42:37;;;;;;;192.05;64.72;;;;;;;;;;4984425;28;20424;-45
2023/12/31 05:45:04;;;;;;;195.77;70.73;;;;;;;;;;4985315;28;20181;-45
2023/12/31 05:47:30;;;;;;;186.75;61.13;;;;;;;;;;4980447;28;20436;-45
2023/12/31 05:49:56;;;;;;;195.18;63.85;;;;;;;;;;4985930;28;20180;-45
2023/12/31 05:52:22;;;;;;;196.07;66.00;;;;;;;;;;4983877;28;20184;-45
2023/12/31 05:54:48;;;;;;;195.77;68.53;;;;;;;;;;4983039;28;20469;-45
2023/12/31 05:57:14;;;;;;;193.47;64.37;;;;;;;;;;4985274;28;20425;-45
2023/12/31 05:59:40;;;;;;;188.50;62.57;;;;;;;;;;4983086;28;20430;-45
2023/12/31 06:02:07;;;;;;;188.20;62.63;;;;;;;;;;4983210;28;20827;-45
2023/12/31 06:04:33;;;;;;;190.48;64.60;;;;;;;;;;4982677;28;20413;-45
2023/12/31 06:06:59;;;;;;;185.20;61.90;;;;;;;;;;4988022;28;20740;-45
2023/12/31 06:09:26;;;;;;;182.88;63.03;;;;;;;;;;4982634;28;20959;-45
2023/12/31 06:11:52;;;;;;;184.18;67.93;;;;;;;;;;4980267;28;20185;-45
2023/12/31 06:14:18;;;;;;;179.50;64.83;;;;;;;;;;4983175;28;20193;-44
2023/12/31 06:16:44;;;;;;;175.17;63.43;;;;;;;;;;4982225;28;20958;-45
2023/12/31 06:19:10;;;;;;;174.87;64.40;;;;;;;;;;4983341;28;20420;-45
2023/12/31 06:21:37;;;;;;;172.53;62.73;;;;;;;;;;4985513;28;20459;-44
2023/12/31 06:24:03;;;;;;;172.02;63.90;;;;;;;;;;4986331;28;20936;-44
2023/12/31 06:26:29;;;;;;;160.30;61.50;;;;;;;;;;4981286;28;20201;-44
2023/12/31 06:28:55;;;;;;;176.10;64.23;;;;;;;;;;4978548;28;20413;-44
2023/12/31 06:31:21;;;;;;;180.13;62.03;;;;;;;;;;4985198;28;20420;-45
2023/12/31 06:33:46;;;;;;;19.93;18.33;;;;;;;;;;4984023;28;20598;-45
2023/12/31 06:36:12;;;;;;;180.43;63.90;;;;;;;;;;4984353;28;20440;-45
2023/12/31 06:38:40;;;;;;;173.33;60.20;;;;;;;;;;4983742;28;20409;-45
2023/12/31 06:41:10;;;;;;;191.10;63.25;;;;;;;;;;4984438;28;20412;-45
2023/12/31 06:43:36;;;;;;;186.23;62.20;;;;;;;;;;4980497;28;20223;-45
2023/12/31 06:46:03;;;;;;;192.00;65.10;;;;;;;;;;4983967;28;20204;-45
2023/12/31 06:48:29;;;;;;;190.85;64.88;;;;;;;;;;4984170;28;20192;-45
2023/12/31 06:50:55;;;;;;;194.47;69.23;;;;;;;;;;4980148;28;20178;-45
2023/12/31 06:53:21;;;;;;;192.98;67.93;;;;;;;;;;4973525;28;20508;-45
2023/12/31 06:55:47;;;;;;;191.18;64.07;;;;;;;;;;4973681;28;20201;-45
2023/12/31 06:58:14;;;;;;;191.07;67.13;;;;;;;;;;4978484;28;20181;-45
2023/12/31 07:00:40;;;;;;;190.85;66.40;;;;;;;;;;4973387;28;20417;-45
2023/12/31 07:03:06;;;;;;;191.10;66.30;;;;;;;;;;4987172;28;20173;-44
2023/12/31 07:05:32;;;;;;;189.07;65.60;;;;;;;;;;4982749;28;20494;-45
2023/12/31 07:07:58;;;;;;;185.68;63.05;;;;;;;;;;4979335;28;20416;-45
2023/12/31 07:10:24;;;;;;;185.73;62.70;;;;;;;;;;4981489;28;20181;-45
2023/12/31 07:12:52;;;;;;;181.63;60.80;;;;;;;;;;4973212;28;20401;-45
2023/12/31 07:15:18;;;;;;;179.68;59.97;;;;;;;;;;4980970;28;20464;-45
2023/12/31 07:17:44;;;;;;;183.37;64.93;;;;;;;;;;4981103;28;20320;-45
2023/12/31 07:20:11;;;;;;;179.15;60.63;;;;;;;;;;4985505;28;20438;-45
2023/12/31 07:22:38;;;;;;;178.85;59.28;;;;;;;;;;4978637;28;20183;-45
2023/12/31 07:25:04;;;;;;;182.90;62.95;;;;;;;;;;4982508;28;20214;-45
2023/12/31 07:27:30;;;;;;;177.30;60.17;;;;;;;;;;4984451;28;20228;-45
2023/12/31 07:29:56;;;;;;;175.17;60.70;;;;;;;;;;4982058;28;20722;-45
2023/12/31 07:32:22;;;;;;;174.73;61.07;;;;;;;;;;4984190;28;20403;-45
2023/12/31 07:34:48;;;;;;;175.03;60.43;;;;;;;;;;4981587;28;20475;-45
2023/12/31 07:37:14;;;;;;;180.53;63.53;;;;;;;;;;4975492;28;20436;-45
2023/12/31 07:39:43;;;;;;;175.47;62.37;;;;;;;;;;4979231;28;20408;-44
2023/12/31 07:42:09;;;;;;;180.65;66.60;;;;;;;;;;4982050;28;20866;-45
2023/12/31 07:44:35;;;;;;;180.25;63.97;;;;;;;;;;4984315;28;20325;-45
2023/12/31 07:47:03;;;;;;;181.18;62.80;;;;;;;;;;4980516;28;20549;-45
2023/12/31 07:49:30;;;;;;;176.95;59.08;;;;;;;;;;4982398;28;20168;-45
2023/12/31 07:51:56;;;;;;;180.18;61.30;;;;;;;;;;4980945;28;20166;-45
2023/12/31 07:54:23;;;;;;;180.75;61.70;;;;;;;;;;4981960;28;20224;-45
2023/12/31 07:56:49;;;;;;;181.13;61.25;;;;;;;;;;4980786;28;20684;-45
2023/12/31 07:59:16;;;;;;;181.20;62.80;;;;;;;;;;4986545;28;20189;-45
2023/12/31 08:01:42;;;;;;;177.57;59.47;;;;;;;;;;4983460;28;20701;-45
2023/12/31 08:04:08;;;;;;;182.63;63.70;;;;;;;;;;4978721;28;20217;-45
2023/12/31 08:06:34;;;;;;;179.88;64.93;;;;;;;;;;4979993;28;20208;-45
2023/12/31 08:09:00;;;;;;;182.40;65.83;;;;;;;;;;4988640;28;20173;-44
2023/12/31 08:11:26;;;;;;;182.15;61.85;;;;;;;;;;4983904;28;20896;-45
2023/12/31 08:13:53;;;;;;;181.10;63.97;;;;;;;;;;4981684;28;20202;-45
2023/12/31 08:16:19;;;;;;;179.48;63.75;;;;;;;;;;4984508;28;20453;-45
2023/12/31 08:18:45;;;;;;;180.05;62.90;;;;;;;;;;4982685;28;20177;-46
2023/12/31 08:21:11;;;;;;;178.10;65.07;;;;;;;;;;4977409;28;20510;-45
2023/12/31 08:23:37;;;;;;;177.68;63.95;;;;;;;;;;4983811;28;20208;-45
2023/12/31 08:26:07;;;;;;;181.63;64.43;;;;;;;;;;4982313;28;20196;-45
2023/12/31 08:28:33;;;;;;;180.70;64.20;;;;;;;;;;4976598;28;20955;-45
2023/12/31 08:30:59;;;;;;;180.57;65.93;;;;;;;;;;4981542;28;20638;-45
2023/12/31 08:33:25;;;;;;;182.73;68.23;;;;;;;;;;4972639;28;20547;-46
2023/12/31 08:35:51;;;;;;;181.50;67.17;;;;;;;;;;4972665;28;20487;-46
2023/12/31 08:38:17;;;;;;;180.07;64.70;;;;;;;;;;4972552;28;20500;-45
2023/12/31 08:40:44;;;;;;;180.13;65.22;;;;;;;;;;4972217;28;20822;-46
2023/12/31 08:43:10;;;;;;;180.02;67.28;;;;;;;;;;4976119;28;20184;-45
2023/12/31 08:45:39;;;;;;;183.07;66.60;;;;;;;;;;4976357;28;20204;-46
2023/12/31 08:48:07;;;;;;;183.07;68.10;;;;;;;;;;4976590;28;20174;-45
2023/12/31 08:50:33;;;;;;;186.50;68.35;;;;;;;;;;4976325;28;20189;-43
2023/12/31 08:52:59;;;;;;;180.90;62.27;;;;;;;;;;4969097;28;20225;-44
2023/12/31 08:55:25;;;;;;;177.93;63.47;;;;;;;;;;4976244;28;20471;-43
2023/12/31 08:57:50;;;;;;;186.77;69.10;;;;;;;;;;4976467;28;20181;-44
2023/12/31 09:00:17;;;;;;;185.00;65.70;;;;;;;;;;4976123;28;20967;-43
2023/12/31 09:02:43;;;;;;;183.43;65.82;;;;;;;;;;4976030;28;20916;-44
2023/12/31 09:05:09;;;;;;;185.15;61.97;;;;;;;;;;4976301;28;20174;-44
2023/12/31 09:07:35;;;;;;;184.57;62.55;;;;;;;;;;4976398;28;20200;-45
2023/12/31 09:10:04;;;;;;;142.52;52.15;;;;;;;;;;4975695;28;20657;-44
2023/12/31 09:12:30;;;;;;;191.10;63.28;;;;;;;;;;4975506;28;20186;-44
2023/12/31 09:14:56;;;;;;;185.80;66.10;;;;;;;;;;4975614;28;20209;-43
2023/12/31 09:17:22;;;;;;;187.97;64.70;;;;;;;;;;4975621;28;20263;-45
2023/12/31 09:19:48;;;;;;;198.57;63.93;;;;;;;;;;4975761;28;20408;-44
2023/12/31 09:22:14;;;;;;;205.87;68.43;;;;;;;;;;4975058;28;20437;-45
2023/12/31 09:24:40;;;;;;;216.37;74.93;;;;;;;;;;4975423;28;20444;-45
2023/12/31 09:27:09;;;;;;;206.90;64.40;;;;;;;;;;4975467;28;20802;-43
2023/12/31 09:29:38;;;;;;;209.95;64.80;;;;;;;;;;4975496;28;20417;-43
2023/12/31 09:32:04;;;;;;;208.95;65.97;;;;;;;;;;4975123;28;20166;-43
2023/12/31 09:34:30;;;;;;;208.87;63.57;;;;;;;;;;4975317;28;20684;-43
2023/12/31 09:36:56;;;;;;;208.47;64.10;;;;;;;;;;4975232;28;20424;-43
2023/12/31 09:39:22;;;;;;;211.30;69.00;;;;;;;;;;4975227;28;20425;-44
2023/12/31 09:41:53;;;;;;;210.30;66.63;;;;;;;;;;4975116;28;20417;-43
2023/12/31 09:44:19;;;;;;;213.82;71.10;;;;;;;;;;4972977;28;20878;-44
2023/12/31 09:46:52;;;;;;;209.13;65.57;;;;;;;;;;4983027;28;20279;-43
2023/12/31 09:49:18;;;;;;;206.52;65.97;;;;;;;;;;4985496;28;20516;-43
2023/12/31 09:51:44;;;;;;;209.13;67.40;;;;;;;;;;4981923;28;20168;-43
2023/12/31 09:54:11;;;;;;;208.75;68.93;;;;;;;;;;4984768;28;20692;-43
2023/12/31 09:56:38;;;;;;;209.43;68.65;;;;;;;;;;4987877;28;20202;-44
2023/12/31 09:59:04;;;;;;;208.23;70.32;;;;;;;;;;4988672;28;20232;-43
2023/12/31 10:01:31;;;;;;;209.70;72.20;;;;;;;;;;4983497;28;20428;-43
2023/12/31 10:03:57;;;;;;;203.00;67.78;;;;;;;;;;4980814;28;20409;-44
2023/12/31 10:06:23;;;;;;;205.45;67.57;;;;;;;;;;4983154;28;20193;-43
2023/12/31 10:08:51;;;;;;;206.45;70.70;;;;;;;;;;4983016;28;20243;-42
2023/12/31 10:11:16;;;;;;;207.60;74.63;;;;;;;;;;4985328;28;20173;-43
2023/12/31 10:13:42;;;;;;;199.97;65.13;;;;;;;;;;4985335;28;20202;-45
2023/12/31 10:16:12;;;;;;;202.67;69.73;;;;;;;;;;4986446;28;20498;-44
2023/12/31 10:18:39;;;;;;;201.13;70.20;;;;;;;;;;4983272;28;20414;-43
2023/12/31 10:21:08;;;;;;;185.73;63.28;;;;;;;;;;4978924;28;20180;-43
2023/12/31 10:23:34;;;;;;;149.73;53.13;;;;;;;;;;4986019;28;20181;-44
2023/12/31 10:26:00;;;;;;;199.00;71.43;;;;;;;;;;4984113;28;20212;-43
2023/12/31 10:28:27;;;;;;;201.53;78.40;;;;;;;;;;4986219;28;20572;-45
2023/12/31 10:30:53;;;;;;;198.88;69.75;;;;;;;;;;4978946;28;20412;-44
2023/12/31 10:33:27;;;;;;;211.05;78.93;;;;;;;;;;4984935;28;20190;-44
2023/12/31 10:36:02;;;;;;;201.35;70.90;;;;;;;;;;4983058;28;20285;-43
2023/12/31 10:41:34;;;;;;;196.85;73.35;;;;;;;;;;4990485;28;20255;-45
2023/12/31 10:44:03;;;;;;;72.60;60.45;;;;;;;;;;4989782;28;20467;-45
2023/12/31 10:46:30;;;;;;;34.17;31.48;;;;;;;;;;4989161;28;20179;-44
2023/12/31 10:49:03;;;;;;;23.33;22.00;;;;;;;;;;4986862;28;20190;-44
2023/12/31 10:51:31;;;;;;;25.13;23.63;;;;;;;;;;4966741;28;20168;-44
2023/12/31 10:54:06;;;;;;;27.85;26.17;;;;;;;;;;4973321;28;20445;-45
2023/12/31 10:56:33;;;;;;;21.07;19.87;;;;;;;;;;4974278;28;20187;-44
2023/12/31 10:58:59;;;;;;;23.65;22.15;;;;;;;;;;4973058;28;20431;-45
2023/12/31 11:01:25;;;;;;;21.33;19.92;;;;;;;;;;4973744;28;20171;-44
2023/12/31 11:03:58;;;;;;;19.33;17.90;;;;;;;;;;4973032;28;20182;-45
2023/12/31 11:06:25;;;;;;;179.88;65.80;;;;;;;;;;4971610;28;20177;-44
2023/12/31 11:08:52;;;;;;;204.82;73.95;;;;;;;;;;4973240;28;20285;-45
2023/12/31 11:11:18;;;;;;;202.30;75.32;;;;;;;;;;4972820;28;20205;-45
2023/12/31 11:13:47;;;;;;;204.82;74.72;;;;;;;;;;4973291;28;20196;-44
2023/12/31 11:16:35;;;;;;;201.57;70.03;;;;;;;;;;4971893;28;20268;-45
2023/12/31 11:19:10;;;;;;;205.70;73.88;;;;;;;;;;4970263;28;20203;-43
2023/12/31 11:21:43;;;;;;;201.90;67.75;;;;;;;;;;4972990;28;20229;-44
2023/12/31 11:24:14;;;;;;;202.68;73.22;;;;;;;;;;4972804;28;20267;-44
2023/12/31 11:26:43;;;;;;;202.85;71.40;;;;;;;;;;4973059;28;20173;-44
2023/12/31 11:29:12;;;;;;;199.43;72.00;;;;;;;;;;4972817;28;20419;-44
2023/12/31 11:31:40;;;;;;;194.48;72.18;;;;;;;;;;4973053;28;20664;-44
2023/12/31 11:34:06;;;;;;;197.88;75.38;;;;;;;;;;4972832;28;20197;-44
2023/12/31 11:36:32;;;;;;;195.97;74.20;;;;;;;;;;4971479;28;20909;-44
2023/12/31 11:39:06;;;;;;;194.88;74.13;;;;;;;;;;4972640;28;20425;-44
2023/12/31 11:41:45;;;;;;;191.68;71.68;;;;;;;;;;4966336;28;20660;-44
2023/12/31 11:44:10;;;;;;;150.00;60.85;;;;;;;;;;4972568;28;20181;-45
2023/12/31 11:46:37;;;;;;;192.50;72.17;;;;;;;;;;4972637;28;20188;-44
2023/12/31 11:49:04;;;;;;;191.00;77.43;;;;;;;;;;4972398;28;20962;-45
2023/12/31 11:51:50;;;;;;;184.63;74.85;;;;;;;;;;4972789;28;20641;-44
2023/12/31 11:54:23;;;;;;;189.00;72.85;;;;;;;;;;4972470;28;20228;-44
2023/12/31 11:56:52;;;;;;;191.98;72.18;;;;;;;;;;4972736;28;20173;-45
2023/12/31 11:59:18;;;;;;;185.35;71.03;;;;;;;;;;4972228;28;20210;-43
2023/12/31 12:01:44;;;;;;;191.27;77.95;;;;;;;;;;4972671;28;20166;-44
2023/12/31 12:04:11;;;;;;;189.32;68.85;;;;;;;;;;4972675;28;20239;-44
2023/12/31 12:06:38;;;;;;;188.32;68.80;;;;;;;;;;4972527;28;20185;-44
2023/12/31 12:09:05;;;;;;;188.63;68.60;;;;;;;;;;4972210;28;20221;-44
2023/12/31 12:11:32;;;;;;;190.45;68.00;;;;;;;;;;4972689;28;20178;-44
2023/12/31 12:13:58;;;;;;;192.90;69.68;;;;;;;;;;4972983;28;20244;-44
2023/12/31 12:16:27;;;;;;;194.20;70.90;;;;;;;;;;4975200;28;20177;-45
2023/12/31 12:19:05;;;;;;;194.07;67.00;;;;;;;;;;4974857;28;20193;-45
2023/12/31 12:21:31;;;;;;;198.38;71.85;;;;;;;;;;4969552;28;20169;-44
2023/12/31 12:23:57;;;;;;;202.75;76.65;;;;;;;;;;4976501;28;20166;-45
2023/12/31 12:26:23;;;;;;;203.20;73.10;;;;;;;;;;4976554;28;20552;-44
2023/12/31 12:28:55;;;;;;;202.48;74.15;;;;;;;;;;4976814;28;20522;-45
2023/12/31 12:31:22;;;;;;;200.18;70.38;;;;;;;;;;4976715;28;20177;-45
2023/12/31 12:33:56;;;;;;;202.85;69.90;;;;;;;;;;4975215;28;20211;-46
2023/12/31 12:36:23;;;;;;;204.88;69.45;;;;;;;;;;4972418;28;20583;-46
2023/12/31 12:38:49;;;;;;;210.35;73.47;;;;;;;;;;4976019;28;20200;-45
2023/12/31 12:41:22;;;;;;;210.68;64.13;;;;;;;;;;4975995;28;20182;-44
2023/12/31 12:43:57;;;;;;;215.63;70.35;;;;;;;;;;4976128;28;20186;-46
2023/12/31 12:46:30;;;;;;;211.50;62.28;;;;;;;;;;4968868;28;20632;-44
2023/12/31 12:48:57;;;;;;;214.27;64.85;;;;;;;;;;4976327;28;20569;-44
2023/12/31 12:51:23;;;;;;;213.10;63.80;;;;;;;;;;4976320;28;20181;-46
2023/12/31 12:53:50;;;;;;;215.77;65.38;;;;;;;;;;4976406;28;20247;-45
2023/12/31 12:56:17;;;;;;;218.60;69.90;;;;;;;;;;4976083;28;20671;-45
2023/12/31 12:58:44;;;;;;;217.70;66.70;;;;;;;;;;4979733;28;20582;-45
2023/12/31 13:01:10;;;;;;;212.73;60.70;;;;;;;;;;4976503;28;20500;-45
2023/12/31 13:03:37;;;;;;;213.68;61.42;;;;;;;;;;4976032;28;20178;-45
2023/12/31 13:06:04;;;;;;;216.45;65.18;;;;;;;;;;4975506;28;20172;-45
2023/12/31 13:08:30;;;;;;;224.23;70.57;;;;;;;;;;4976028;28;20617;-45
2023/12/31 13:10:56;;;;;;;166.03;51.17;;;;;;;;;;4975754;28;20258;-45
2023/12/31 13:13:22;;;;;;;214.75;63.92;;;;;;;;;;4975555;28;20412;-45
2023/12/31 13:15:48;;;;;;;215.05;63.28;;;;;;;;;;4975562;28;20173;-45
2023/12/31 13:18:14;;;;;;;215.10;65.17;;;;;;;;;;4975567;28;20181;-44
2023/12/31 13:20:40;;;;;;;215.53;65.40;;;;;;;;;;4975309;28;20924;-46
2023/12/31 13:23:06;;;;;;;214.32;64.03;;;;;;;;;;4975818;28;20904;-44
2023/12/31 13:25:32;;;;;;;215.98;65.00;;;;;;;;;;4975402;28;20180;-45
2023/12/31 13:27:58;;;;;;;216.40;68.17;;;;;;;;;;4975167;28;20176;-46
2023/12/31 13:30:26;;;;;;;216.85;67.05;;;;;;;;;;4975126;28;20449;-44
2023/12/31 13:32:52;;;;;;;160.75;49.50;;;;;;;;;;4975257;28;20591;-44
2023/12/31 13:35:18;;;;;;;215.73;63.60;;;;;;;;;;4975364;28;20328;-44
2023/12/31 13:37:44;;;;;;;214.82;64.45;;;;;;;;;;4975451;28;20405;-44
2023/12/31 13:40:10;;;;;;;214.27;60.10;;;;;;;;;;4977814;28;20699;-45
2023/12/31 13:42:36;;;;;;;210.85;55.50;;;;;;;;;;4994406;28;20433;-44
2023/12/31 13:45:03;;;;;;;214.32;60.47;;;;;;;;;;4975825;28;20185;-45
2023/12/31 13:47:29;;;;;;;212.52;58.15;;;;;;;;;;4989638;28;20234;-44
2023/12/31 13:49:56;;;;;;;182.53;51.30;;;;;;;;;;4983329;28;20205;-45
2023/12/31 13:52:22;;;;;;;212.43;59.60;;;;;;;;;;4981613;28;20420;-45
2023/12/31 13:54:48;;;;;;;211.88;58.83;;;;;;;;;;4991337;28;20271;-44
2023/12/31 13:57:14;;;;;;;212.57;59.80;;;;;;;;;;4974905;28;20164;-45
2023/12/31 13:59:40;;;;;;;196.53;54.07;;;;;;;;;;4992796;28;20429;-45
2023/12/31 14:02:07;;;;;;;11.63;10.57;;;;;;;;;;4979708;28;20403;-45
2023/12/31 14:04:33;;;;;;;14.48;13.27;;;;;;;;;;4984958;28;20271;-45
2023/12/31 14:06:59;;;;;;;180.60;53.27;;;;;;;;;;4987664;28;20260;-46